createdAt,value
2018-07-01T00:00:12.078Z,1.60
2018-07-01T00:02:40.571Z,1.40
2018-07-01T00:05:09.252Z,1.65
2018-07-01T00:07:39.063Z,1.60
2018-07-01T00:10:07.641Z,1.45
2018-07-01T00:12:36.233Z,1.40
2018-07-01T00:15:05.667Z,1.30
2018-07-01T00:17:34.020Z,1.65
2018-07-01T00:20:02.302Z,1.40
2018-07-01T00:22:30.578Z,1.52
2018-07-01T00:24:58.822Z,1.40
2018-07-01T00:27:27.066Z,1.32
2018-07-01T00:29:55.980Z,1.30
2018-07-01T00:32:24.232Z,1.40
2018-07-01T00:34:52.466Z,1.40
2018-07-01T00:37:21.213Z,1.22
2018-07-01T00:39:49.520Z,1.40
2018-07-01T00:42:17.754Z,1.30
2018-07-01T00:44:46.083Z,1.20
2018-07-01T00:47:14.322Z,1.40
2018-07-01T00:49:42.570Z,1.10
2018-07-01T00:52:11.070Z,1.32
2018-07-01T00:54:39.290Z,1.30
2018-07-01T00:57:07.518Z,1.47
2018-07-01T00:59:36.314Z,1.10
2018-07-01T01:02:04.551Z,1.22
2018-07-01T01:04:32.774Z,1.30
2018-07-01T01:07:01.462Z,1.30
2018-07-01T01:09:31.063Z,1.32
2018-07-01T01:11:59.307Z,1.00
2018-07-01T01:14:27.647Z,1.32
2018-07-01T01:16:55.889Z,1.20
2018-07-01T01:19:24.109Z,1.32
2018-07-01T01:21:52.391Z,1.30
2018-07-01T01:24:20.609Z,1.10
2018-07-01T01:26:48.850Z,1.02
2018-07-01T01:29:17.588Z,1.20
2018-07-01T01:31:45.820Z,1.12
2018-07-01T01:34:14.072Z,1.20
2018-07-01T01:36:43.190Z,1.10
2018-07-01T01:39:17.624Z,1.20
2018-07-01T01:41:53.268Z,1.00
2018-07-01T01:45:24.594Z,1.20
2018-07-01T01:48:00.585Z,1.02
2018-07-01T01:50:39.150Z,1.20
2018-07-01T01:53:11.242Z,1.20
2018-07-01T01:56:13.803Z,1.00
2018-07-01T01:59:46.066Z,1.27
2018-07-01T02:02:18.011Z,0.90
2018-07-01T02:04:52.346Z,1.10
2018-07-01T02:07:31.274Z,1.20
2018-07-01T02:10:00.018Z,1.10
2018-07-01T02:12:28.250Z,1.10
2018-07-01T02:14:59.138Z,1.12
2018-07-01T02:17:33.075Z,0.90
2018-07-01T02:20:01.309Z,1.10
2018-07-01T02:22:40.694Z,1.30
2018-07-01T02:25:13.629Z,1.10
2018-07-01T02:27:41.953Z,0.95
2018-07-01T02:30:10.201Z,1.10
2018-07-01T02:32:38.430Z,0.90
2018-07-01T02:35:07.105Z,1.05
2018-07-01T02:37:35.355Z,1.10
2018-07-01T02:40:03.627Z,1.10
2018-07-01T02:42:32.338Z,0.90
2018-07-01T02:45:00.573Z,0.98
2018-07-01T02:47:28.801Z,1.32
2018-07-01T02:49:57.057Z,1.00
2018-07-01T02:52:25.591Z,1.15
2018-07-01T02:54:53.969Z,1.05
2018-07-01T02:57:22.251Z,1.10
2018-07-01T02:59:50.547Z,1.05
2018-07-01T03:02:18.783Z,0.95
2018-07-01T03:04:47.237Z,1.10
2018-07-01T03:07:16.712Z,1.05
2018-07-01T03:09:44.938Z,1.00
2018-07-01T03:12:13.297Z,0.88
2018-07-01T03:14:41.528Z,0.90
2018-07-01T03:17:09.787Z,1.00
2018-07-01T03:19:38.087Z,0.88
2018-07-01T03:22:06.314Z,0.80
2018-07-01T03:24:34.546Z,0.88
2018-07-01T03:27:03.466Z,1.00
2018-07-01T03:29:31.682Z,1.00
2018-07-01T03:31:59.917Z,1.10
2018-07-01T03:34:28.404Z,1.10
2018-07-01T03:36:56.922Z,0.80
2018-07-01T03:39:25.154Z,0.80
2018-07-01T03:41:53.434Z,0.80
2018-07-01T03:44:21.661Z,0.90
2018-07-01T03:46:49.888Z,0.72
2018-07-01T03:49:18.373Z,0.82
2018-07-01T03:51:46.624Z,0.90
2018-07-01T03:54:15.015Z,0.90
2018-07-01T03:56:43.370Z,0.88
2018-07-01T03:59:11.586Z,1.00
2018-07-01T04:01:39.811Z,0.70
2018-07-01T04:04:08.104Z,0.90
2018-07-01T04:06:36.350Z,0.85
2018-07-01T04:09:09.271Z,0.88
2018-07-01T04:11:37.542Z,0.68
2018-07-01T04:14:05.770Z,0.80
2018-07-01T04:16:34.079Z,0.88
2018-07-01T04:19:02.511Z,0.82
2018-07-01T04:21:30.749Z,0.90
2018-07-01T04:23:58.981Z,0.80
2018-07-01T04:26:27.751Z,0.80
2018-07-01T04:28:56.016Z,0.70
2018-07-01T04:31:24.438Z,0.85
2018-07-01T04:33:53.189Z,0.90
2018-07-01T04:36:21.424Z,0.75
2018-07-01T04:38:49.763Z,0.80
2018-07-01T04:41:18.321Z,0.70
2018-07-01T04:43:46.624Z,0.62
2018-07-01T04:46:14.857Z,0.80
2018-07-01T04:48:43.673Z,1.00
2018-07-01T04:51:11.905Z,0.78
2018-07-01T04:53:40.127Z,0.88
2018-07-01T04:56:08.418Z,0.72
2018-07-01T04:58:36.649Z,0.60
2018-07-01T05:01:04.958Z,0.90
2018-07-01T05:03:34.658Z,0.62
2018-07-01T05:06:02.909Z,0.70
2018-07-01T05:08:32.139Z,0.70
2018-07-01T05:11:01.234Z,0.90
2018-07-01T05:13:29.486Z,0.88
2018-07-01T05:15:57.709Z,0.68
2018-07-01T05:18:28.018Z,0.72
2018-07-01T05:20:56.266Z,0.80
2018-07-01T05:23:24.500Z,0.70
2018-07-01T05:25:54.278Z,1.00
2018-07-01T05:28:22.509Z,0.70
2018-07-01T05:30:50.760Z,0.80
2018-07-01T05:33:19.414Z,0.70
2018-07-01T05:35:47.702Z,0.60
2018-07-01T05:38:15.935Z,0.60
2018-07-01T05:40:44.450Z,0.80
2018-07-01T05:43:12.690Z,0.70
2018-07-01T05:45:41.023Z,0.70
2018-07-01T05:48:09.695Z,0.70
2018-07-01T05:50:37.921Z,0.85
2018-07-01T05:53:06.371Z,0.68
2018-07-01T05:55:34.722Z,0.80
2018-07-01T05:58:02.966Z,0.80
2018-07-01T06:00:31.219Z,0.70
2018-07-01T06:03:01.452Z,0.60
2018-07-01T06:05:29.697Z,0.85
2018-07-01T06:08:04.822Z,0.70
2018-07-01T06:10:33.055Z,0.75
2018-07-01T06:13:01.506Z,0.70
2018-07-01T06:15:29.802Z,0.60
2018-07-01T06:17:58.038Z,0.60
2018-07-01T06:20:26.265Z,0.68
2018-07-01T06:22:54.541Z,0.60
2018-07-01T06:25:22.770Z,0.78
2018-07-01T06:27:51.012Z,0.53
2018-07-01T06:30:20.017Z,0.80
2018-07-01T06:32:48.326Z,0.60
2018-07-01T06:35:16.498Z,0.80
2018-07-01T06:37:45.890Z,0.60
2018-07-01T06:40:14.141Z,0.72
2018-07-01T06:42:42.414Z,0.70
2018-07-01T06:45:10.713Z,0.80
2018-07-01T06:47:38.947Z,0.70
2018-07-01T06:50:07.269Z,0.70
2018-07-01T06:52:36.563Z,0.93
2018-07-01T06:55:04.895Z,0.95
2018-07-01T06:57:33.177Z,0.90
2018-07-01T07:00:01.754Z,0.80
2018-07-01T07:02:29.991Z,1.00
2018-07-01T07:04:58.238Z,0.93
2018-07-01T07:07:30.046Z,1.35
2018-07-01T07:09:58.289Z,0.82
2018-07-01T07:12:26.542Z,1.05
2018-07-01T07:14:55.357Z,0.98
2018-07-01T07:17:23.610Z,1.30
2018-07-01T07:19:51.886Z,1.30
2018-07-01T07:22:20.494Z,1.02
2018-07-01T07:24:48.726Z,1.10
2018-07-01T07:27:17.048Z,1.30
2018-07-01T07:29:45.422Z,0.95
2018-07-01T07:32:13.643Z,0.90
2018-07-01T07:34:42.123Z,1.17
2018-07-01T07:37:10.570Z,1.35
2018-07-01T07:39:38.815Z,1.25
2018-07-01T07:42:07.064Z,1.25
2018-07-01T07:44:35.471Z,1.10
2018-07-01T07:47:03.726Z,1.32
2018-07-01T07:49:31.963Z,1.40
2018-07-01T07:52:00.839Z,1.72
2018-07-01T07:54:29.118Z,0.90
2018-07-01T07:56:57.397Z,1.12
2018-07-01T07:59:25.735Z,1.00
2018-07-01T08:01:54.013Z,1.30
2018-07-01T08:04:22.214Z,1.20
2018-07-01T08:06:50.701Z,1.30
2018-07-01T08:09:21.035Z,1.30
2018-07-01T08:11:49.283Z,1.82
2018-07-01T08:14:17.655Z,1.50
2018-07-01T08:16:45.902Z,1.40
2018-07-01T08:19:14.143Z,1.40
2018-07-01T08:21:42.923Z,1.45
2018-07-01T08:24:11.205Z,1.40
2018-07-01T08:26:39.435Z,1.65
2018-07-01T08:29:08.880Z,2.00
2018-07-01T08:31:37.135Z,1.47
2018-07-01T08:34:05.469Z,1.57
2018-07-01T08:36:33.525Z,1.30
2018-07-01T08:39:01.767Z,1.40
2018-07-01T08:41:36.717Z,1.67
2018-07-01T08:44:04.961Z,1.77
2018-07-01T08:46:33.193Z,1.52
2018-07-01T08:49:02.065Z,1.65
2018-07-01T08:51:30.329Z,1.37
2018-07-01T08:53:58.602Z,1.77
2018-07-01T08:56:26.883Z,1.72
2018-07-01T08:58:55.140Z,1.40
2018-07-01T09:01:23.365Z,1.50
2018-07-01T09:03:51.661Z,1.40
2018-07-01T09:06:20.182Z,1.60
2018-07-01T09:08:51.067Z,1.40
2018-07-01T09:11:19.895Z,1.37
2018-07-01T09:13:48.127Z,1.70
2018-07-01T09:16:16.694Z,1.50
2018-07-01T09:18:45.017Z,1.30
2018-07-01T09:21:13.281Z,1.62
2018-07-01T09:23:41.726Z,1.42
2018-07-01T09:26:09.974Z,1.30
2018-07-01T09:28:38.246Z,1.60
2018-07-01T09:31:06.866Z,1.50
2018-07-01T09:33:35.103Z,1.17
2018-07-01T09:36:03.344Z,1.60
2018-07-01T09:38:31.613Z,1.30
2018-07-01T09:40:59.881Z,1.20
2018-07-01T09:43:28.152Z,1.25
2018-07-01T09:45:56.629Z,1.50
2018-07-01T09:48:25.108Z,1.60
2018-07-01T09:50:53.357Z,1.57
2018-07-01T09:53:22.591Z,1.40
2018-07-01T09:55:50.871Z,1.22
2018-07-01T09:58:19.111Z,1.20
2018-07-01T10:00:47.689Z,1.40
2018-07-01T10:03:15.910Z,1.30
2018-07-01T10:05:44.148Z,1.30
2018-07-01T10:08:14.398Z,1.30
2018-07-01T10:10:42.642Z,1.75
2018-07-01T10:13:10.935Z,1.50
2018-07-01T10:15:39.326Z,1.30
2018-07-01T10:18:07.575Z,1.57
2018-07-01T10:20:35.891Z,1.10
2018-07-01T10:23:04.179Z,1.50
2018-07-01T10:25:32.414Z,1.47
2018-07-01T10:28:00.653Z,1.40
2018-07-01T10:30:29.197Z,1.32
2018-07-01T10:32:57.446Z,1.05
2018-07-01T10:35:25.698Z,1.27
2018-07-01T10:37:53.984Z,1.20
2018-07-01T10:40:22.218Z,1.57
2018-07-01T10:42:50.438Z,0.90
2018-07-01T10:45:18.987Z,1.00
2018-07-01T10:47:47.230Z,1.12
2018-07-01T10:50:15.483Z,1.37
2018-07-01T10:52:44.504Z,1.20
2018-07-01T10:55:12.722Z,1.70
2018-07-01T10:57:41.063Z,1.10
2018-07-01T11:00:09.538Z,1.02
2018-07-01T11:02:37.781Z,0.98
2018-07-01T11:05:06.147Z,1.17
2018-07-01T11:07:36.213Z,1.17
2018-07-01T11:10:04.506Z,1.15
2018-07-01T11:12:32.755Z,1.30
2018-07-01T11:15:01.460Z,1.20
2018-07-01T11:17:29.721Z,1.10
2018-07-01T11:19:58.019Z,1.17
2018-07-01T11:22:26.604Z,0.93
2018-07-01T11:24:54.884Z,0.93
2018-07-01T11:27:23.249Z,1.20
2018-07-01T11:29:51.660Z,0.85
2018-07-01T11:32:19.894Z,1.00
2018-07-01T11:34:48.157Z,1.02
2018-07-01T11:37:16.474Z,0.90
2018-07-01T11:39:44.789Z,1.10
2018-07-01T11:42:13.041Z,1.15
2018-07-01T11:44:42.015Z,0.95
2018-07-01T11:47:10.240Z,0.80
2018-07-01T11:49:38.622Z,1.05
2018-07-01T11:52:07.770Z,1.00
2018-07-01T11:54:36.218Z,0.98
2018-07-01T11:57:04.571Z,1.07
2018-07-01T11:59:33.403Z,1.20
2018-07-01T12:02:01.708Z,0.80
2018-07-01T12:04:29.937Z,1.20
2018-07-01T12:06:58.169Z,1.05
2018-07-01T12:09:46.588Z,1.40
2018-07-01T12:12:14.825Z,1.47
2018-07-01T12:14:43.125Z,2.10
2018-07-01T12:17:11.417Z,1.77
2018-07-01T12:19:39.672Z,1.72
2018-07-01T12:22:08.178Z,2.30
2018-07-01T12:24:36.422Z,1.87
2018-07-01T12:27:04.707Z,2.00
2018-07-01T12:29:34.031Z,2.58
2018-07-01T12:32:02.282Z,2.20
2018-07-01T12:34:30.514Z,2.20
2018-07-01T12:36:58.855Z,2.47
2018-07-01T12:39:27.175Z,2.50
2018-07-01T12:41:55.505Z,2.90
2018-07-01T12:44:23.734Z,3.05
2018-07-01T12:46:51.979Z,2.58
2018-07-01T12:49:20.400Z,2.87
2018-07-01T12:51:49.048Z,2.80
2018-07-01T12:54:17.294Z,2.60
2018-07-01T12:56:45.543Z,2.60
2018-07-01T12:59:14.799Z,2.30
2018-07-01T13:01:43.054Z,2.08
2018-07-01T13:04:11.314Z,2.60
2018-07-01T13:06:39.631Z,2.65
2018-07-01T13:09:12.643Z,2.30
2018-07-01T13:11:42.469Z,2.30
2018-07-01T13:14:10.714Z,2.10
2018-07-01T13:16:38.970Z,2.08
2018-07-01T13:19:08.066Z,1.90
2018-07-01T13:21:36.334Z,2.37
2018-07-01T13:24:04.647Z,2.10
2018-07-01T13:26:33.623Z,1.95
2018-07-01T13:29:01.879Z,2.20
2018-07-01T13:31:30.146Z,2.30
2018-07-01T13:33:58.497Z,6.97
2018-07-01T13:36:26.734Z,3.47
2018-07-01T13:38:55.015Z,3.00
2018-07-01T13:41:23.479Z,3.42
2018-07-01T13:43:51.786Z,3.02
2018-07-01T13:46:19.785Z,2.80
2018-07-01T13:48:49.134Z,2.85
2018-07-01T13:51:17.376Z,2.65
2018-07-01T13:53:48.053Z,3.08
2018-07-01T13:56:16.318Z,2.40
2018-07-01T13:58:44.577Z,2.25
2018-07-01T14:01:12.866Z,2.42
2018-07-01T14:03:41.139Z,2.40
2018-07-01T14:06:09.390Z,2.67
2018-07-01T14:08:37.708Z,2.30
2018-07-01T14:11:06.046Z,2.20
2018-07-01T14:13:34.911Z,2.10
2018-07-01T14:16:03.244Z,2.10
2018-07-01T14:18:31.562Z,2.37
2018-07-01T14:20:59.818Z,1.90
2018-07-01T14:25:47.560Z,2.42
2018-07-01T14:28:15.805Z,2.42
2018-07-01T14:30:44.066Z,2.20
2018-07-01T14:33:12.895Z,2.40
2018-07-01T14:35:41.159Z,2.22
2018-07-01T14:38:09.422Z,2.22
2018-07-01T14:40:37.778Z,2.42
2018-07-01T14:43:06.026Z,2.22
2018-07-01T14:45:34.311Z,2.47
2018-07-01T14:48:02.967Z,2.55
2018-07-01T14:50:31.236Z,2.52
2018-07-01T14:52:59.510Z,2.95
2018-07-01T14:55:28.412Z,2.45
2018-07-01T14:57:56.667Z,2.47
2018-07-01T15:00:25.119Z,2.65
2018-07-01T15:02:53.422Z,2.83
2018-07-01T15:05:21.655Z,2.77
2018-07-01T15:07:51.749Z,2.52
2018-07-01T15:10:20.322Z,2.65
2018-07-01T15:12:48.552Z,2.30
2018-07-01T15:15:16.789Z,2.37
2018-07-01T15:17:45.267Z,2.55
2018-07-01T15:20:13.539Z,2.83
2018-07-01T15:22:41.836Z,2.92
2018-07-01T15:25:10.806Z,2.85
2018-07-01T15:27:39.048Z,2.60
2018-07-01T15:30:07.811Z,2.42
2018-07-01T15:32:36.095Z,2.70
2018-07-01T15:35:04.356Z,2.30
2018-07-01T15:37:32.626Z,3.08
2018-07-01T15:40:00.944Z,2.87
2018-07-01T15:42:29.191Z,2.67
2018-07-01T15:44:57.423Z,2.40
2018-07-01T15:47:25.878Z,2.60
2018-07-01T15:49:54.134Z,3.08
2018-07-01T15:52:22.383Z,3.30
2018-07-01T15:54:50.957Z,2.60
2018-07-01T15:57:19.217Z,2.55
2018-07-01T15:59:47.486Z,2.55
2018-07-01T16:02:15.818Z,2.52
2018-07-01T16:04:44.074Z,2.42
2018-07-01T16:07:12.325Z,2.22
2018-07-01T16:09:42.760Z,2.35
2018-07-01T16:12:10.996Z,2.30
2018-07-01T16:14:39.280Z,2.35
2018-07-01T16:17:10.976Z,2.33
2018-07-01T16:19:39.278Z,2.75
2018-07-01T16:22:07.548Z,2.33
2018-07-01T16:24:41.238Z,2.42
2018-07-01T16:27:15.898Z,2.80
2018-07-01T16:29:46.222Z,2.33
2018-07-01T16:32:14.521Z,2.42
2018-07-01T16:34:42.809Z,2.58
2018-07-01T16:37:11.230Z,2.45
2018-07-01T16:39:39.470Z,2.47
2018-07-01T16:42:07.707Z,2.35
2018-07-01T16:44:35.757Z,2.00
2018-07-01T16:47:04.040Z,2.12
2018-07-01T16:49:32.337Z,2.17
2018-07-01T16:52:01.199Z,2.22
2018-07-01T16:54:29.458Z,2.30
2018-07-01T16:56:57.714Z,2.30
2018-07-01T16:59:26.335Z,2.05
2018-07-01T17:01:54.594Z,2.50
2018-07-01T17:04:22.854Z,2.17
2018-07-01T17:06:51.362Z,1.87
2018-07-01T17:09:19.599Z,2.10
2018-07-01T17:11:48.549Z,1.80
2018-07-01T17:14:17.221Z,2.22
2018-07-01T17:16:45.463Z,1.95
2018-07-01T17:19:13.688Z,2.25
2018-07-01T17:21:41.979Z,1.98
2018-07-01T17:24:10.218Z,1.98
2018-07-01T17:26:38.451Z,2.05
2018-07-01T17:29:07.799Z,2.08
2018-07-01T17:31:41.471Z,2.02
2018-07-01T17:34:09.773Z,1.92
2018-07-01T17:36:38.002Z,2.35
2018-07-01T17:39:08.436Z,2.02
2018-07-01T17:41:36.951Z,2.10
2018-07-01T17:44:05.257Z,1.75
2018-07-01T17:46:33.504Z,2.00
2018-07-01T17:49:02.567Z,2.20
2018-07-01T17:51:30.818Z,1.72
2018-07-01T17:53:59.117Z,1.85
2018-07-01T17:56:27.617Z,1.98
2018-07-01T17:58:55.906Z,2.00
2018-07-01T18:01:24.159Z,1.70
2018-07-01T18:03:52.453Z,1.80
2018-07-01T18:06:20.733Z,1.95
2018-07-01T18:08:49.035Z,1.90
2018-07-01T18:11:18.018Z,2.22
2018-07-01T18:13:47.004Z,1.98
2018-07-01T18:16:15.265Z,1.50
2018-07-01T18:18:43.585Z,1.70
2018-07-01T18:21:11.949Z,1.82
2018-07-01T18:24:11.118Z,1.90
2018-07-01T18:26:08.403Z,2.08
2018-07-01T18:28:48.656Z,2.08
2018-07-01T18:31:04.997Z,1.82
2018-07-01T18:33:33.978Z,1.82
2018-07-01T18:36:02.220Z,1.55
2018-07-01T18:38:30.500Z,1.65
2018-07-01T18:40:59.001Z,1.85
2018-07-01T18:43:27.244Z,1.82
2018-07-01T18:45:55.533Z,1.80
2018-07-01T18:48:23.842Z,1.60
2018-07-01T18:50:52.104Z,1.75
2018-07-01T18:53:20.391Z,1.90
2018-07-01T18:55:49.577Z,1.82
2018-07-01T18:58:17.819Z,1.90
2018-07-01T19:00:46.062Z,1.50
2018-07-01T19:03:15.436Z,1.35
2018-07-01T19:05:43.694Z,1.60
2018-07-01T19:08:11.947Z,1.80
2018-07-01T19:10:40.282Z,1.55
2018-07-01T19:13:08.803Z,1.60
2018-07-01T19:15:37.720Z,1.80
2018-07-01T19:18:07.647Z,1.72
2018-07-01T19:20:36.088Z,1.98
2018-07-01T19:23:04.349Z,1.50
2018-07-01T19:25:33.094Z,1.80
2018-07-01T19:28:01.355Z,1.75
2018-07-01T19:30:29.660Z,1.70
2018-07-01T19:32:58.343Z,1.98
2018-07-01T19:35:26.766Z,1.70
2018-07-01T19:37:55.173Z,1.50
2018-07-01T19:40:24.306Z,1.47
2018-07-01T19:42:52.629Z,1.60
2018-07-01T19:45:20.807Z,1.37
2018-07-01T19:47:49.088Z,1.67
2018-07-01T19:50:17.327Z,1.45
2018-07-01T19:52:45.602Z,1.47
2018-07-01T19:55:14.260Z,1.27
2018-07-01T19:57:42.539Z,1.52
2018-07-01T20:00:10.754Z,1.30
2018-07-01T20:02:39.926Z,1.67
2018-07-01T20:05:08.198Z,1.60
2018-07-01T20:07:36.475Z,1.42
2018-07-01T20:10:04.860Z,1.37
2018-07-01T20:12:33.181Z,1.30
2018-07-01T20:15:01.426Z,1.70
2018-07-01T20:17:30.102Z,1.30
2018-07-01T20:19:58.367Z,1.37
2018-07-01T20:22:26.667Z,1.47
2018-07-01T20:24:55.418Z,1.50
2018-07-01T20:27:23.699Z,1.42
2018-07-01T20:29:51.956Z,1.50
2018-07-01T20:32:20.256Z,1.50
2018-07-01T20:34:48.523Z,1.15
2018-07-01T20:37:16.846Z,1.10
2018-07-01T20:39:45.163Z,1.47
2018-07-01T20:42:13.497Z,1.60
2018-07-01T20:44:41.740Z,1.32
2018-07-01T20:47:10.743Z,1.30
2018-07-01T20:49:39.076Z,1.40
2018-07-01T20:52:07.310Z,1.30
2018-07-01T20:54:35.615Z,1.15
2018-07-01T20:57:03.850Z,1.10
2018-07-01T20:59:32.127Z,1.10
2018-07-01T21:02:00.444Z,1.05
2018-07-01T21:04:28.922Z,1.25
2018-07-01T21:06:57.325Z,1.00
2018-07-01T21:09:25.954Z,1.10
2018-07-01T21:11:54.254Z,1.30
2018-07-01T21:14:22.623Z,1.22
2018-07-01T21:16:50.929Z,1.15
2018-07-01T21:19:20.178Z,1.20
2018-07-01T21:21:48.446Z,1.00
2018-07-01T21:24:16.950Z,1.10
2018-07-01T21:26:45.276Z,1.00
2018-07-01T21:29:13.566Z,1.10
2018-07-01T21:31:42.390Z,0.90
2018-07-01T21:34:10.659Z,1.00
2018-07-01T21:36:38.919Z,1.02
2018-07-01T21:39:09.095Z,1.10
2018-07-01T21:41:38.023Z,0.90
2018-07-01T21:44:06.606Z,1.05
2018-07-01T21:46:34.913Z,1.05
2018-07-01T21:49:03.223Z,0.90
2018-07-01T21:51:31.467Z,1.10
2018-07-01T21:54:00.055Z,1.00
2018-07-01T21:56:28.366Z,1.20
2018-07-01T21:58:56.609Z,0.90
2018-07-01T22:01:24.916Z,1.00
2018-07-01T22:03:53.163Z,1.02
2018-07-01T22:06:21.450Z,0.95
2018-07-01T22:08:49.765Z,0.88
2018-07-01T22:11:44.163Z,0.70
2018-07-01T22:14:26.125Z,1.02
2018-07-01T22:16:54.521Z,0.90
2018-07-01T22:19:24.665Z,0.80
2018-07-01T22:21:53.744Z,0.90
2018-07-01T22:24:23.198Z,0.70
2018-07-01T22:26:51.474Z,1.00
2018-07-01T22:29:19.972Z,0.95
2018-07-01T22:31:48.205Z,0.82
2018-07-01T22:34:17.484Z,0.98
2018-07-01T22:36:46.942Z,0.82
2018-07-01T22:39:19.266Z,1.00
2018-07-01T22:41:48.240Z,0.88
2018-07-01T22:44:16.497Z,1.02
2018-07-01T22:46:45.547Z,1.00
2018-07-01T22:49:13.862Z,0.93
2018-07-01T22:51:42.284Z,0.80
2018-07-01T22:54:10.553Z,1.17
2018-07-01T22:56:39.407Z,0.80
2018-07-01T22:59:07.718Z,1.12
2018-07-01T23:01:36.572Z,1.02
2018-07-01T23:04:05.054Z,0.98
2018-07-01T23:06:33.309Z,0.85
2018-07-01T23:09:01.551Z,0.88
2018-07-01T23:11:29.814Z,0.82
2018-07-01T23:13:58.060Z,0.70
2018-07-01T23:16:26.318Z,0.72
2018-07-01T23:18:55.122Z,0.75
2018-07-01T23:21:24.013Z,0.90
2018-07-01T23:23:52.253Z,0.72
2018-07-01T23:26:20.534Z,0.78
2018-07-01T23:28:48.758Z,0.88
2018-07-01T23:31:17.258Z,0.78
2018-07-01T23:33:45.801Z,0.68
2018-07-01T23:36:14.050Z,0.60
2018-07-01T23:38:42.378Z,0.80
2018-07-01T23:41:11.768Z,0.80
2018-07-01T23:43:40.015Z,0.72
2018-07-01T23:46:08.240Z,0.90
2018-07-01T23:48:36.743Z,0.70
2018-07-01T23:51:04.975Z,0.70
2018-07-01T23:53:33.240Z,0.70
2018-07-01T23:56:01.767Z,0.82
2018-07-01T23:58:29.737Z,0.70
